Time;durP1;ratioP1;P1;durP2;ratioP2;P2;SDS_P1;SDS_P2;PMS_P1;PMS_P2;Temp;Humidity;BMP_temperature;BMP_pressure;BME280_temperature;BME280_humidity;BME280_pressure;Samples;Min_cycle;Max_cycle;Signal;HPM_P1;HPM_P2
2022/06/02 00:02:18;;;;;;;14.20;4.90;;;11.90;80.90;;;;;;4999440;28;20483;-52
2022/06/02 00:04:57;;;;;;;4.40;3.67;;;11.90;80.40;;;;;;4996682;28;20942;-52
2022/06/02 00:07:30;;;;;;;3.53;3.23;;;11.90;80.20;;;;;;5012381;28;20786;-52
2022/06/02 00:10:06;;;;;;;5.53;5.03;;;11.90;79.90;;;;;;5007574;28;20490;-51
2022/06/02 00:12:41;;;;;;;13.00;3.67;;;11.60;80.60;;;;;;5022169;28;20504;-52
2022/06/02 00:15:23;;;;;;;10.80;6.27;;;11.30;81.60;;;;;;5018183;28;20576;-51
2022/06/02 00:17:59;;;;;;;6.80;3.47;;;11.10;81.90;;;;;;5017279;28;20485;-51
2022/06/02 00:20:30;;;;;;;4.17;3.57;;;10.90;82.80;;;;;;5007112;28;20501;-53
2022/06/02 00:23:15;;;;;;;4.30;3.90;;;10.70;84.70;;;;;;5029257;28;20483;-52
2022/06/02 00:25:50;;;;;;;3.83;3.53;;;10.60;85.40;;;;;;5024115;28;20495;-51
2022/06/02 00:28:28;;;;;;;14.00;4.10;;;10.60;85.60;;;;;;5021823;28;20997;-51
2022/06/02 00:31:00;;;;;;;3.30;3.00;;;10.70;84.70;;;;;;5000680;28;20482;-51
2022/06/02 00:33:37;;;;;;;6.03;3.73;;;10.80;83.30;;;;;;4990951;28;20472;-52
2022/06/02 00:36:11;;;;;;;4.47;3.67;;;10.90;82.50;;;;;;5004299;28;21007;-51
2022/06/02 00:38:40;;;;;;;6.70;4.37;;;11.00;81.90;;;;;;5002088;28;20599;-51
2022/06/02 00:41:16;;;;;;;5.37;4.87;;;11.00;81.50;;;;;;5003246;28;20906;-51
2022/06/02 00:44:02;;;;;;;3.43;3.00;;;10.90;81.50;;;;;;5003874;28;20480;-50
2022/06/02 00:46:42;;;;;;;3.00;2.70;;;10.70;81.60;;;;;;4994136;28;20839;-52
2022/06/02 00:49:15;;;;;;;5.53;5.03;;;10.50;81.70;;;;;;4995500;28;21010;-51
2022/06/02 00:51:52;;;;;;;4.10;3.80;;;10.50;82.20;;;;;;5002100;28;20984;-51
2022/06/02 00:57:32;;;;;;;6.20;5.60;;;10.30;83.70;;;;;;5002847;28;20516;-51
2022/06/02 01:00:08;;;;;;;4.20;3.80;;;10.30;84.00;;;;;;4987589;28;20474;-51
2022/06/02 01:02:48;;;;;;;12.60;3.73;;;10.40;83.70;;;;;;4997518;28;20494;-53
2022/06/02 01:05:23;;;;;;;7.40;6.80;;;10.40;83.00;;;;;;4996822;28;20948;-51
2022/06/02 01:07:57;;;;;;;6.50;4.03;;;10.50;82.80;;;;;;4987405;28;20546;-51
2022/06/02 01:10:40;;;;;;;4.37;3.97;;;10.50;82.30;;;;;;5000799;28;21416;-51
2022/06/02 01:13:28;;;;;;;3.03;2.80;;;10.30;82.30;;;;;;4990369;28;20877;-51
2022/06/02 01:16:05;;;;;;;3.50;3.20;;;10.30;82.40;;;;;;5002813;28;20499;-51
2022/06/02 01:18:40;;;;;;;7.70;5.23;;;10.20;82.70;;;;;;4999705;28;20508;-51
2022/06/02 01:21:28;;;;;;;5.80;5.20;;;10.20;82.60;;;;;;4997677;28;20979;-51
2022/06/02 01:24:19;;;;;;;12.63;3.57;;;10.30;81.90;;;;;;4989986;28;20493;-53
2022/06/02 01:27:03;;;;;;;3.70;3.40;;;10.30;82.20;;;;;;5013895;28;21006;-51
2022/06/02 01:29:59;;;;;;;4.93;4.43;;;10.30;81.60;;;;;;4990467;28;20905;-51
2022/06/02 01:32:31;;;;;;;13.93;3.70;;;10.30;81.90;;;;;;4993544;28;20913;-53
2022/06/02 01:35:09;;;;;;;4.10;3.80;;;10.20;81.90;;;;;;4999692;28;20496;-50
2022/06/02 01:37:42;;;;;;;10.63;3.53;;;10.20;81.60;;;;;;4998479;28;20489;-51
2022/06/02 01:40:27;;;;;;;6.10;5.33;;;10.20;81.50;;;;;;4997040;28;20795;-51
2022/06/02 01:42:58;;;;;;;7.70;3.50;;;10.20;82.20;;;;;;4987880;28;20479;-51
2022/06/02 01:45:42;;;;;;;10.23;3.40;;;10.20;82.30;;;;;;4990668;28;20954;-51
2022/06/02 01:48:19;;;;;;;12.43;4.97;;;10.20;82.20;;;;;;4991048;28;20882;-51
2022/06/02 01:50:56;;;;;;;4.67;4.13;;;10.20;81.90;;;;;;5002343;28;20497;-51
2022/06/02 01:53:36;;;;;;;15.23;4.60;;;10.20;82.00;;;;;;5003598;28;20496;-51
2022/06/02 01:56:29;;;;;;;3.97;3.67;;;10.20;82.00;;;;;;4998829;28;20485;-51
2022/06/02 01:59:12;;;;;;;5.07;4.67;;;10.20;81.20;;;;;;4996303;28;20756;-50
2022/06/02 02:01:46;;;;;;;3.73;3.17;;;10.20;80.70;;;;;;4999370;28;20499;-50
2022/06/02 02:04:25;;;;;;;6.73;6.13;;;;;;;;;;4996337;28;20487;-51
2022/06/02 02:07:00;;;;;;;4.00;3.60;;;10.10;81.20;;;;;;5008926;28;20488;-51
2022/06/02 02:09:37;;;;;;;3.80;3.50;;;10.10;80.70;;;;;;4993293;28;20499;-50
2022/06/02 02:12:12;;;;;;;14.07;4.57;;;10.00;81.30;;;;;;4996613;28;20476;-51
2022/06/02 02:15:02;;;;;;;3.67;3.37;;;9.90;81.20;;;;;;5000407;28;20481;-51
2022/06/02 02:17:48;;;;;;;10.97;4.30;;;9.90;81.60;;;;;;4989708;28;21007;-50
2022/06/02 02:20:26;;;;;;;7.67;6.63;;;9.80;82.30;;;;;;4991992;28;21125;-51
2022/06/02 02:22:58;;;;;;;5.40;4.90;;;9.80;83.90;;;;;;4998945;28;20477;-51
2022/06/02 02:25:30;;;;;;;5.13;4.73;;;9.80;84.20;;;;;;4996229;28;20478;-51
2022/06/02 02:28:08;;;;;;;12.70;5.13;;;9.80;83.60;;;;;;5000689;28;21022;-50
2022/06/02 02:30:48;;;;;;;4.93;4.43;;;9.80;82.70;;;;;;4987038;28;20992;-50
2022/06/02 02:33:25;;;;;;;15.33;5.20;;;9.80;82.20;;;;;;4994599;28;20487;-50
2022/06/02 02:36:01;;;;;;;4.37;3.97;;;9.70;82.00;;;;;;5004701;28;20499;-50
2022/06/02 02:38:37;;;;;;;11.03;4.07;;;9.60;82.60;;;;;;4991345;28;21002;-50
2022/06/02 02:41:07;;;;;;;4.43;4.10;;;9.60;82.40;;;;;;4985392;28;21039;-50
2022/06/02 02:43:41;;;;;;;13.27;4.23;;;9.50;82.00;;;;;;5001510;28;20469;-50
2022/06/02 02:46:15;;;;;;;5.93;4.70;;;9.40;81.90;;;;;;4991291;28;20476;-51
2022/06/02 02:48:46;;;;;;;4.20;3.83;;;;;;;;;;4999945;28;20500;-50
2022/06/02 02:51:23;;;;;;;7.47;6.60;;;9.00;83.40;;;;;;4998528;28;20492;-50
2022/06/02 02:53:57;;;;;;;4.37;4.00;;;8.80;83.60;;;;;;5001031;28;20485;-50
2022/06/02 02:56:30;;;;;;;9.83;3.93;;;8.70;83.80;;;;;;4998634;28;20505;-50
2022/06/02 02:59:02;;;;;;;5.00;4.17;;;8.70;83.70;;;;;;4999416;28;21026;-49
2022/06/02 03:01:48;;;;;;;4.23;3.63;;;8.60;85.50;;;;;;4991458;28;20926;-50
2022/06/02 03:04:28;;;;;;;7.40;6.70;;;8.50;86.30;;;;;;4988579;28;20836;-49
2022/06/02 03:06:56;;;;;;;13.23;4.77;;;8.50;86.40;;;;;;4995162;28;20563;-49
2022/06/02 03:09:29;;;;;;;5.80;5.23;;;8.40;85.50;;;;;;5006774;28;20496;-50
2022/06/02 03:12:06;;;;;;;10.77;4.33;;;8.50;84.60;;;;;;4999663;28;21161;-50
2022/06/02 03:14:54;;;;;;;4.43;3.17;;;8.50;84.10;;;;;;4996710;28;20484;-50
2022/06/02 03:17:29;;;;;;;15.80;5.80;;;8.60;84.60;;;;;;4987346;28;20484;-51
2022/06/02 03:20:00;;;;;;;5.07;4.57;;;8.60;84.50;;;;;;4991057;28;20489;-50
2022/06/02 03:22:39;;;;;;;5.80;5.00;;;8.70;84.10;;;;;;4994528;28;20492;-51
2022/06/02 03:25:13;;;;;;;5.17;4.63;;;8.80;84.10;;;;;;4999218;28;20483;-50
2022/06/02 03:27:46;;;;;;;4.40;4.00;;;8.80;83.60;;;;;;4999037;28;20482;-51
2022/06/02 03:30:21;;;;;;;6.70;6.07;;;8.90;83.70;;;;;;4986884;28;20480;-51
2022/06/02 03:33:05;;;;;;;5.97;4.63;;;8.90;83.10;;;;;;4995612;28;20758;-51
2022/06/02 03:35:40;;;;;;;3.87;3.57;;;8.90;82.60;;;;;;4999511;28;20512;-50
2022/06/02 03:38:23;;;;;;;6.00;4.43;;;8.90;82.00;;;;;;4996912;28;21310;-50
2022/06/02 03:41:17;;;;;;;5.60;5.10;;;8.80;82.00;;;;;;4999696;28;20494;-50
2022/06/02 03:43:53;;;;;;;4.30;3.90;;;8.60;82.10;;;;;;4997801;28;20543;-51
2022/06/02 03:46:34;;;;;;;7.77;6.63;;;8.40;82.90;;;;;;5004372;28;21031;-50
2022/06/02 03:49:20;;;;;;;4.73;4.23;;;8.40;83.60;;;;;;5003020;28;20484;-50
2022/06/02 03:51:56;;;;;;;4.03;3.60;;;8.40;84.00;;;;;;4993631;28;20481;-50
2022/06/02 03:54:45;;;;;;;4.13;3.83;;;8.40;84.50;;;;;;5003355;28;20507;-51
2022/06/02 03:57:30;;;;;;;12.70;4.57;;;8.40;84.30;;;;;;4989209;28;20487;-50
2022/06/02 04:00:12;;;;;;;4.97;3.93;;;8.40;84.00;;;;;;5001562;28;21063;-51
2022/06/02 04:02:45;;;;;;;4.33;3.77;;;8.30;83.40;;;;;;4999075;28;20483;-51
2022/06/02 04:05:44;;;;;;;6.03;5.30;;;8.40;83.90;;;;;;5001602;28;20957;-51
2022/06/02 04:08:38;;;;;;;5.10;4.60;;;8.40;84.00;;;;;;5003686;28;20715;-51
2022/06/02 04:11:22;;;;;;;5.37;4.87;;;8.40;83.80;;;;;;5002709;28;20487;-51
2022/06/02 04:13:59;;;;;;;3.80;3.50;;;8.50;83.50;;;;;;4993708;28;20476;-51
2022/06/02 04:16:56;;;;;;;3.80;3.50;;;8.50;83.80;;;;;;4993372;28;20512;-51
2022/06/02 04:22:44;;;;;;;15.37;4.20;;;8.30;83.80;;;;;;5004048;28;20494;-50
2022/06/02 04:25:28;;;;;;;8.20;7.40;;;8.30;84.00;;;;;;5003541;28;20480;-49
2022/06/02 04:28:06;;;;;;;4.50;4.10;;;8.30;84.50;;;;;;4993496;28;20495;-49
2022/06/02 04:30:43;;;;;;;5.57;5.07;;;8.30;85.10;;;;;;5000345;28;20492;-50
2022/06/02 04:33:17;;;;;;;8.27;6.30;;;8.30;85.20;;;;;;5002936;28;20487;-49
2022/06/02 04:35:54;;;;;;;4.80;3.70;;;8.50;85.70;;;;;;5003983;28;21020;-50
2022/06/02 04:38:30;;;;;;;9.13;6.73;;;8.60;86.60;;;;;;5000955;28;20843;-55
2022/06/02 04:41:07;;;;;;;12.00;4.67;;;8.80;87.10;;;;;;5000232;28;20488;-50
2022/06/02 04:43:44;;;;;;;10.70;4.20;;;9.20;87.70;;;;;;5003624;28;20483;-50
2022/06/02 04:46:25;;;;;;;9.63;6.10;;;9.40;88.10;;;;;;5002399;28;20498;-50
2022/06/02 04:48:59;;;;;;;6.70;5.53;;;9.80;86.70;;;;;;4986723;28;20505;-51
2022/06/02 04:51:34;;;;;;;9.33;5.40;;;10.00;85.20;;;;;;5007201;28;20489;-50
2022/06/02 04:54:10;;;;;;;14.43;5.07;;;10.00;84.60;;;;;;5002740;28;21044;-51
2022/06/02 04:56:43;;;;;;;4.23;3.83;;;10.10;84.30;;;;;;4999757;28;20483;-50
2022/06/02 04:59:16;;;;;;;9.70;5.67;;;10.30;84.30;;;;;;4993359;28;20488;-51
2022/06/02 05:01:55;;;;;;;4.93;4.40;;;10.40;84.30;;;;;;4996489;28;20488;-51
2022/06/02 05:04:36;;;;;;;38.80;6.37;;;10.60;85.30;;;;;;4989065;28;20498;-51
2022/06/02 05:07:13;;;;;;;5.60;5.07;;;10.80;86.20;;;;;;5000699;28;21024;-51
2022/06/02 05:09:46;;;;;;;15.43;5.57;;;11.00;87.50;;;;;;5000035;28;20491;-50
2022/06/02 05:12:23;;;;;;;7.13;6.53;;;11.20;88.10;;;;;;4996111;28;20575;-52
2022/06/02 05:15:07;;;;;;;9.37;6.40;;;11.40;88.00;;;;;;4995882;28;20487;-51
2022/06/02 05:17:56;;;;;;;5.87;5.27;;;11.50;87.50;;;;;;4995508;28;20480;-54
2022/06/02 05:20:41;;;;;;;8.43;6.70;;;11.80;87.10;;;;;;5002564;28;21390;-51
2022/06/02 05:23:34;;;;;;;7.73;5.97;;;12.00;88.50;;;;;;5001953;28;20479;-51
2022/06/02 05:26:27;;;;;;;12.00;6.80;;;12.10;88.90;;;;;;5003796;28;20480;-51
2022/06/02 05:29:24;;;;;;;10.50;7.07;;;12.30;88.70;;;;;;4987860;28;20485;-51
2022/06/02 05:32:24;;;;;;;7.43;6.67;;;12.50;87.80;;;;;;4999261;28;20602;-51
2022/06/02 05:35:25;;;;;;;14.57;7.20;;;12.70;88.00;;;;;;5000554;28;20473;-54
2022/06/02 05:38:07;;;;;;;8.73;6.50;;;12.80;88.40;;;;;;4995626;28;20912;-51
2022/06/02 05:40:38;;;;;;;7.00;6.40;;;12.80;88.00;;;;;;5003017;28;20484;-51
2022/06/02 05:43:22;;;;;;;8.30;7.20;;;12.90;87.90;;;;;;4995931;28;20470;-52
2022/06/02 05:46:02;;;;;;;9.40;7.27;;;13.00;87.90;;;;;;4997015;28;20481;-52
2022/06/02 05:48:48;;;;;;;19.77;8.40;;;13.10;87.60;;;;;;5000898;28;20468;-52
2022/06/02 05:51:21;;;;;;;8.60;7.73;;;13.20;87.80;;;;;;5013511;28;21294;-52
2022/06/02 05:54:02;;;;;;;12.77;7.00;;;13.20;88.40;;;;;;5004831;28;20809;-52
2022/06/02 05:56:39;;;;;;;7.50;6.80;;;13.30;88.10;;;;;;4998488;28;21062;-52
2022/06/02 05:59:32;;;;;;;14.20;7.60;;;13.40;89.40;;;;;;4997234;28;20559;-52
2022/06/02 06:02:17;;;;;;;9.93;7.27;;;13.50;89.30;;;;;;4999209;28;20478;-52
2022/06/02 06:05:04;;;;;;;8.30;7.30;;;13.50;88.60;;;;;;4989407;28;20483;-53
2022/06/02 06:07:43;;;;;;;15.77;7.70;;;13.70;89.60;;;;;;5001335;28;20472;-53
2022/06/02 06:10:16;;;;;;;10.87;9.27;;;13.80;89.10;;;;;;4987830;28;20478;-53
2022/06/02 06:12:55;;;;;;;16.57;8.60;;;14.10;88.70;;;;;;4996570;28;20494;-53
2022/06/02 06:15:31;;;;;;;27.87;9.90;;;14.30;88.40;;;;;;5009762;28;20581;-53
2022/06/02 06:18:08;;;;;;;13.90;7.90;;;14.50;87.90;;;;;;4995886;28;20487;-53
2022/06/02 06:20:53;;;;;;;11.50;8.63;;;14.70;87.10;;;;;;4988731;28;20509;-53
2022/06/02 06:23:47;;;;;;;11.27;9.10;;;15.00;87.40;;;;;;4994837;28;20479;-53
2022/06/02 06:26:25;;;;;;;12.00;10.10;;;15.20;86.00;;;;;;4972738;28;20472;-53
2022/06/02 06:29:06;;;;;;;10.93;9.77;;;15.40;85.30;;;;;;4998127;28;20482;-53
2022/06/02 06:31:41;;;;;;;15.30;9.07;;;15.60;86.30;;;;;;4996748;28;20472;-53
2022/06/02 06:34:16;;;;;;;10.33;9.27;;;15.80;84.40;;;;;;5000867;28;20480;-53
2022/06/02 06:36:58;;;;;;;8.70;7.90;;;16.10;84.00;;;;;;4996815;28;20567;-53
2022/06/02 06:39:41;;;;;;;8.87;7.97;;;16.20;83.40;;;;;;4998233;28;20495;-54
2022/06/02 06:42:26;;;;;;;14.50;8.23;;;16.50;82.80;;;;;;5000231;28;20493;-53
2022/06/02 06:44:57;;;;;;;8.00;6.67;;;16.60;82.10;;;;;;4990946;28;21227;-54
2022/06/02 06:47:29;;;;;;;11.80;7.57;;;16.90;81.50;;;;;;5000718;28;20930;-54
2022/06/02 06:50:04;;;;;;;6.97;6.30;;;17.10;82.70;;;;;;4995116;28;20540;-54
2022/06/02 06:52:48;;;;;;;6.60;5.90;;;17.20;80.20;;;;;;4998338;28;20488;-54
2022/06/02 06:55:34;;;;;;;10.30;7.33;;;17.40;80.20;;;;;;4998419;28;20480;-53
2022/06/02 06:58:12;;;;;;;7.00;6.40;;;17.60;78.40;;;;;;4997706;28;20487;-54
2022/06/02 07:00:46;;;;;;;7.00;6.30;;;17.80;78.20;;;;;;4997963;28;20516;-54
2022/06/02 07:03:20;;;;;;;6.70;6.13;;;18.10;78.50;;;;;;4994255;28;20480;-54
2022/06/02 07:05:50;;;;;;;8.00;5.50;;;18.30;77.60;;;;;;4989658;28;20481;-55
2022/06/02 07:08:29;;;;;;;13.60;7.30;;;18.60;77.00;;;;;;4990857;28;20477;-55
2022/06/02 07:11:04;;;;;;;5.47;4.97;;;18.70;76.50;;;;;;4976530;28;20495;-54
2022/06/02 07:13:35;;;;;;;12.90;5.10;;;19.00;73.90;;;;;;4994697;28;20493;-55
2022/06/02 07:16:10;;;;;;;4.90;4.50;;;19.10;73.80;;;;;;5001494;28;20671;-55
2022/06/02 07:18:47;;;;;;;5.50;5.10;;;19.20;72.00;;;;;;4996621;28;20477;-54
2022/06/02 07:21:23;;;;;;;6.10;5.60;;;19.40;73.20;;;;;;4965291;28;20500;-55
2022/06/02 07:24:04;;;;;;;8.17;4.70;;;19.70;73.40;;;;;;4988088;28;20484;-55
2022/06/02 07:26:50;;;;;;;9.83;4.43;;;19.90;72.60;;;;;;4957443;28;20480;-55
2022/06/02 07:29:31;;;;;;;9.33;5.37;;;20.10;71.30;;;;;;5015282;28;20477;-56
2022/06/02 07:32:35;;;;;;;6.50;4.70;;;20.20;71.60;;;;;;5012536;28;20476;-56
2022/06/02 07:35:34;;;;;;;4.50;4.10;;;20.30;71.30;;;;;;4980442;28;20485;-56
2022/06/02 07:38:08;;;;;;;5.60;5.03;;;20.40;70.90;;;;;;5001923;28;20469;-55
2022/06/02 07:41:01;;;;;;;3.80;3.50;;;20.70;71.60;;;;;;4997390;28;20473;-55
2022/06/02 07:43:41;;;;;;;4.40;4.10;;;20.70;70.20;;;;;;4998885;28;20503;-56
2022/06/02 07:46:25;;;;;;;7.80;4.10;;;20.90;70.00;;;;;;4988591;28;20548;-56
2022/06/02 07:49:11;;;;;;;4.17;3.87;;;21.00;70.10;;;;;;4998874;28;20488;-56
2022/06/02 07:51:46;;;;;;;4.47;4.13;;;21.00;69.70;;;;;;4996000;28;20488;-55
2022/06/02 07:54:29;;;;;;;4.37;3.97;;;21.20;69.30;;;;;;4987286;28;20475;-57
2022/06/02 07:57:11;;;;;;;5.83;4.00;;;21.40;69.40;;;;;;4986128;28;21248;-56
2022/06/02 07:59:53;;;;;;;4.63;3.77;;;21.60;69.80;;;;;;4986663;28;20486;-56
2022/06/02 08:02:56;;;;;;;4.57;4.27;;;21.70;68.70;;;;;;4999015;28;20488;-57
2022/06/02 08:05:34;;;;;;;4.03;3.70;;;22.00;69.40;;;;;;4990190;28;20487;-56
2022/06/02 08:08:06;;;;;;;7.37;4.37;;;22.10;68.30;;;;;;5005425;28;20484;-57
2022/06/02 08:10:46;;;;;;;4.17;3.80;;;22.20;67.20;;;;;;4994684;28;20511;-57
2022/06/02 08:13:28;;;;;;;4.30;4.00;;;22.30;67.10;;;;;;4986797;28;20481;-57
2022/06/02 08:16:01;;;;;;;4.77;3.80;;;22.40;67.40;;;;;;4985067;28;20465;-58
2022/06/02 08:18:45;;;;;;;4.00;3.60;;;22.30;65.40;;;;;;5009054;28;20486;-58
2022/06/02 08:21:25;;;;;;;4.37;4.07;;;22.50;65.90;;;;;;4988778;28;20516;-58
2022/06/02 08:24:12;;;;;;;3.60;3.30;;;22.60;66.30;;;;;;4988240;28;21009;-59
2022/06/02 08:26:48;;;;;;;5.00;4.40;;;22.80;67.40;;;;;;5018357;28;20515;-58
2022/06/02 08:29:32;;;;;;;19.37;4.60;;;22.70;64.00;;;;;;4994863;28;20481;-58
2022/06/02 08:32:27;;;;;;;3.83;3.53;;;23.00;66.10;;;;;;4999321;28;20990;-59
2022/06/02 08:35:08;;;;;;;8.83;3.57;;;23.10;65.00;;;;;;5003142;28;20925;-59
2022/06/02 08:37:48;;;;;;;8.30;2.80;;;23.20;65.60;;;;;;5002989;28;20493;-58
2022/06/02 08:40:45;;;;;;;4.23;3.83;;;23.50;66.10;;;;;;4990026;28;20480;-59
2022/06/02 08:43:44;;;;;;;4.33;3.93;;;23.70;65.00;;;;;;4996531;28;20488;-59
2022/06/02 08:46:47;;;;;;;3.53;3.27;;;23.90;62.90;;;;;;4994413;28;20955;-59
2022/06/02 08:49:41;;;;;;;4.33;3.83;;;23.90;60.00;;;;;;4961500;28;20968;-59
2022/06/02 08:52:34;;;;;;;8.20;3.40;;;23.90;60.10;;;;;;4993088;28;20485;-58
2022/06/02 08:55:40;;;;;;;3.10;2.90;;;24.00;62.10;;;;;;5011908;28;20828;-59
2022/06/02 08:58:40;;;;;;;3.87;3.57;;;23.90;63.30;;;;;;4993624;28;20501;-59
2022/06/02 09:01:12;;;;;;;4.40;3.60;;;23.80;61.70;;;;;;5021664;28;20481;-60
2022/06/02 09:04:25;;;;;;;3.67;3.03;;;24.00;63.70;;;;;;4997373;28;20478;-58
2022/06/02 09:07:12;;;;;;;2.83;2.63;;;24.30;63.70;;;;;;5002907;28;20905;-61
2022/06/02 09:10:20;;;;;;;2.80;2.60;;;24.60;61.90;;;;;;4998336;28;20569;-58
2022/06/02 09:13:22;;;;;;;3.13;2.17;;;24.70;61.20;;;;;;5000449;28;20971;-60
2022/06/02 09:16:16;;;;;;;3.27;2.97;;;24.90;62.90;;;;;;4999914;28;20492;-60
2022/06/02 09:19:10;;;;;;;5.70;3.33;;;24.50;60.50;;;;;;4997574;28;20989;-60
2022/06/02 09:21:56;;;;;;;17.93;2.87;;;24.50;61.20;;;;;;4995271;28;20480;-59
2022/06/02 09:24:28;;;;;;;5.23;2.73;;;24.40;61.20;;;;;;4986242;28;20492;-62
2022/06/02 09:27:19;;;;;;;10.30;2.60;;;24.40;61.20;;;;;;5014341;28;20972;-59
2022/06/02 09:29:51;;;;;;;2.90;2.70;;;24.50;62.20;;;;;;4992977;28;20950;-59
2022/06/02 09:32:40;;;;;;;2.80;2.57;;;24.40;60.40;;;;;;4999763;28;20508;-61
2022/06/02 09:35:18;;;;;;;3.60;3.30;;;24.40;61.40;;;;;;5000656;28;20492;-63
2022/06/02 09:38:14;;;;;;;2.80;2.60;;;24.60;62.10;;;;;;5023910;28;20464;-61
2022/06/02 09:40:47;;;;;;;9.40;2.80;;;24.80;62.20;;;;;;4984511;28;20822;-60
2022/06/02 09:43:50;;;;;;;3.60;3.23;;;25.10;64.30;;;;;;5001246;28;20566;-61
2022/06/02 09:46:55;;;;;;;3.63;3.43;;;25.30;61.10;;;;;;5003764;28;20469;-62
2022/06/02 09:49:55;;;;;;;2.70;2.50;;;25.50;60.10;;;;;;4998267;28;20512;-61
2022/06/02 09:52:36;;;;;;;3.07;2.87;;;25.70;61.00;;;;;;4988645;28;21052;-62
2022/06/02 09:55:28;;;;;;;3.63;2.67;;;25.60;59.40;;;;;;5018445;28;21179;-62
2022/06/02 09:58:23;;;;;;;3.00;2.80;;;25.70;61.00;;;;;;4999706;28;20737;-62
2022/06/02 10:01:02;;;;;;;2.40;2.20;;;25.70;61.50;;;;;;5006886;28;20496;-60
2022/06/02 10:04:08;;;;;;;3.00;2.80;;;25.80;59.70;;;;;;5021317;28;20574;-59
2022/06/02 10:07:17;;;;;;;4.10;3.07;;;25.70;59.70;;;;;;4999744;28;20477;-63
2022/06/02 10:10:14;;;;;;;2.50;2.30;;;25.80;60.70;;;;;;4993590;28;20483;-60
2022/06/02 10:13:07;;;;;;;2.97;2.67;;;25.90;59.90;;;;;;5009048;28;20462;-60
2022/06/02 10:15:53;;;;;;;5.63;2.87;;;26.00;59.80;;;;;;5001285;28;20493;-62
2022/06/02 10:18:44;;;;;;;10.10;2.83;;;26.10;59.60;;;;;;4991642;28;20476;-62
2022/06/02 10:21:23;;;;;;;3.47;3.17;;;26.20;60.80;;;;;;5000188;28;20478;-61
2022/06/02 10:24:29;;;;;;;5.53;2.77;;;26.30;59.20;;;;;;4997391;28;20473;-62
2022/06/02 10:27:11;;;;;;;2.63;2.43;;;26.30;58.50;;;;;;4992863;28;20466;-62
2022/06/02 10:30:05;;;;;;;2.30;2.10;;;26.20;58.90;;;;;;5009980;28;20496;-60
2022/06/02 10:32:55;;;;;;;2.87;2.60;;;25.70;55.40;;;;;;4987364;28;20470;-59
2022/06/02 10:35:54;;;;;;;3.20;2.90;;;25.70;61.80;;;;;;4996741;28;20982;-59
2022/06/02 10:38:29;;;;;;;6.70;3.23;;;26.00;60.80;;;;;;4997819;28;21288;-61
2022/06/02 10:41:22;;;;;;;5.83;2.50;;;26.10;63.50;;;;;;4998238;28;20504;-62
2022/06/02 10:44:07;;;;;;;3.00;2.80;;;25.70;56.10;;;;;;4991646;28;20970;-60
2022/06/02 10:47:21;;;;;;;2.20;1.93;;;25.90;60.60;;;;;;4998425;28;20488;-62
2022/06/02 10:49:59;;;;;;;7.77;2.30;;;25.70;56.30;;;;;;4956805;28;20473;-60
2022/06/02 10:53:03;;;;;;;3.30;2.30;;;25.70;58.70;;;;;;5001283;28;20855;-60
2022/06/02 10:56:06;;;;;;;2.50;2.30;;;25.80;58.40;;;;;;4992986;28;20483;-61
2022/06/02 10:59:21;;;;;;;3.20;2.90;;;26.00;58.60;;;;;;4990168;28;20539;-60
2022/06/02 11:02:57;;;;;;;2.60;2.40;;;25.40;55.90;;;;;;4999196;28;20478;-59
2022/06/02 11:06:06;;;;;;;2.80;2.60;;;25.60;57.20;;;;;;5014074;28;20481;-60
2022/06/02 11:09:24;;;;;;;3.30;3.10;;;25.10;54.60;;;;;;4998573;28;20600;-61
2022/06/02 11:12:08;;;;;;;4.53;3.00;;;25.30;58.20;;;;;;4926903;28;20478;-63
2022/06/02 11:15:16;;;;;;;3.13;2.83;;;25.40;57.60;;;;;;4997478;28;20718;-61
2022/06/02 11:18:16;;;;;;;3.53;2.20;;;25.60;57.40;;;;;;5002942;28;20966;-60
2022/06/02 11:21:19;;;;;;;3.60;2.37;;;25.70;57.00;;;;;;4993811;28;20481;-60
2022/06/02 11:24:13;;;;;;;3.43;2.30;;;25.90;57.20;;;;;;5009366;28;20482;-61
2022/06/02 11:27:06;;;;;;;9.40;2.77;;;25.90;56.00;;;;;;5017844;28;20557;-61
2022/06/02 11:30:03;;;;;;;4.60;3.27;;;26.10;56.60;;;;;;4999560;28;20835;-61
2022/06/02 11:32:56;;;;;;;4.30;3.10;;;26.10;56.60;;;;;;4990187;28;20517;-61
2022/06/02 11:36:05;;;;;;;3.50;3.20;;;26.00;57.70;;;;;;4988346;28;20504;-60
2022/06/02 11:38:54;;;;;;;5.00;4.50;;;26.10;58.20;;;;;;4977365;28;20475;-61
2022/06/02 11:41:34;;;;;;;9.17;3.80;;;26.30;58.40;;;;;;4987645;28;20498;-60
2022/06/02 11:44:08;;;;;;;4.67;3.60;;;26.30;56.70;;;;;;4994054;28;20557;-63
2022/06/02 11:47:09;;;;;;;7.23;2.73;;;26.30;56.30;;;;;;4999715;28;20477;-65
2022/06/02 11:50:06;;;;;;;7.30;3.53;;;26.30;58.30;;;;;;4998699;28;20503;-62
2022/06/02 11:53:05;;;;;;;2.80;2.60;;;26.40;57.20;;;;;;5000568;28;20468;-61
2022/06/02 11:55:39;;;;;;;4.43;3.27;;;26.60;58.50;;;;;;5010089;28;20674;-62
2022/06/02 11:58:41;;;;;;;8.33;2.57;;;26.60;57.90;;;;;;5000872;28;20909;-62
2022/06/02 12:01:40;;;;;;;4.13;3.07;;;26.60;56.60;;;;;;5008368;28;21038;-61
2022/06/02 12:04:57;;;;;;;4.50;3.60;;;26.20;55.20;;;;;;5002231;28;20999;-61
2022/06/02 12:07:56;;;;;;;3.73;3.33;;;26.20;57.30;;;;;;5023879;28;20507;-61
2022/06/02 12:10:52;;;;;;;4.37;4.00;;;26.10;54.00;;;;;;5019279;28;20473;-63
2022/06/02 12:13:45;;;;;;;3.80;3.50;;;26.10;57.70;;;;;;4999417;28;20974;-62
2022/06/02 12:16:36;;;;;;;5.50;4.33;;;26.10;57.40;;;;;;5002546;28;20509;-61
2022/06/02 12:19:29;;;;;;;3.33;3.13;;;26.10;56.40;;;;;;5000538;28;20481;-62
2022/06/02 12:22:14;;;;;;;2.57;2.37;;;26.30;57.50;;;;;;5011634;28;21036;-61
2022/06/02 12:25:10;;;;;;;3.70;2.80;;;26.40;56.80;;;;;;5021279;28;20484;-64
2022/06/02 12:28:05;;;;;;;8.03;2.57;;;26.50;55.60;;;;;;4988450;28;21005;-61
2022/06/02 12:30:45;;;;;;;2.87;2.67;;;26.50;55.80;;;;;;4999663;28;20474;-61
2022/06/02 12:33:27;;;;;;;3.27;2.93;;;26.60;57.40;;;;;;5000846;28;20572;-61
2022/06/02 12:36:06;;;;;;;10.63;2.27;;;26.80;58.70;;;;;;5002468;28;20501;-60
2022/06/02 12:39:13;;;;;;;3.30;3.00;;;27.20;56.60;;;;;;4997974;28;20477;-62
2022/06/02 12:42:04;;;;;;;2.67;2.47;;;27.20;57.00;;;;;;4971953;28;20489;-63
2022/06/02 12:44:57;;;;;;;3.03;2.07;;;27.40;57.30;;;;;;4952809;28;20460;-61
2022/06/02 12:47:37;;;;;;;3.37;3.07;;;;;;;;;;4986286;28;20493;-62
2022/06/02 12:50:35;;;;;;;6.10;3.47;;;25.60;55.50;;;;;;5019596;28;20485;-61
2022/06/02 12:53:34;;;;;;;4.00;3.70;;;27.20;56.10;;;;;;4997294;28;20465;-62
2022/06/02 12:56:24;;;;;;;4.20;3.60;;;27.40;57.80;;;;;;4992778;28;20473;-61
2022/06/02 12:59:39;;;;;;;2.87;2.60;;;27.50;55.90;;;;;;4995867;28;20568;-63
2022/06/02 13:02:08;;;;;;;3.40;2.20;;;27.70;55.60;;;;;;4999484;28;20853;-62
2022/06/02 13:05:09;;;;;;;2.90;2.70;;;27.70;54.90;;;;;;5001410;28;20532;-67
2022/06/02 13:08:04;;;;;;;2.80;2.37;;;27.80;55.60;;;;;;5003568;28;20478;-63
2022/06/02 13:11:03;;;;;;;3.03;2.80;;;27.80;55.30;;;;;;4998037;28;20469;-63
2022/06/02 13:13:53;;;;;;;4.20;2.27;;;27.90;54.70;;;;;;5001179;28;20482;-63
2022/06/02 13:16:39;;;;;;;3.07;2.87;;;28.00;55.90;;;;;;5008794;28;20476;-61
2022/06/02 13:19:46;;;;;;;2.30;1.93;;;28.10;54.80;;;;;;5001040;28;20488;-64
2022/06/02 13:22:50;;;;;;;10.90;2.60;;;28.10;56.60;;;;;;4991231;28;20507;-63
2022/06/02 13:26:01;;;;;;;9.73;2.70;;;27.90;54.40;;;;;;4975685;28;20526;-61
2022/06/02 13:29:04;;;;;;;9.33;2.93;;;28.00;56.00;;;;;;5000926;28;20558;-63
2022/06/02 13:32:13;;;;;;;16.00;2.70;;;27.70;55.00;;;;;;5016175;28;20483;-61
2022/06/02 13:35:20;;;;;;;24.27;4.07;;;27.70;55.90;;;;;;5020188;28;20480;-63
2022/06/02 13:38:07;;;;;;;19.23;3.00;;;27.70;55.00;;;;;;5010364;28;20484;-63
2022/06/02 13:40:51;;;;;;;6.90;2.63;;;27.70;55.80;;;;;;5014907;28;20495;-62
2022/06/02 13:43:47;;;;;;;3.30;2.63;;;27.60;56.10;;;;;;5006546;28;20468;-57
2022/06/02 13:46:50;;;;;;;18.10;3.23;;;27.50;55.10;;;;;;5019726;28;20484;-62
2022/06/02 13:49:45;;;;;;;9.53;2.40;;;27.50;54.90;;;;;;4984369;28;20473;-61
2022/06/02 13:52:48;;;;;;;2.90;2.70;;;27.40;55.30;;;;;;5000582;28;20452;-62
2022/06/02 13:59:03;;;;;;;3.67;3.00;;;27.00;55.30;;;;;;5000983;28;20520;-60
2022/06/02 14:01:58;;;;;;;4.80;2.50;;;27.10;58.00;;;;;;5001087;28;20476;-59
2022/06/02 14:04:54;;;;;;;3.87;3.03;;;26.60;54.90;;;;;;4990143;28;20482;-58
2022/06/02 14:07:57;;;;;;;10.83;3.10;;;26.30;54.20;;;;;;4987248;28;20465;-59
2022/06/02 14:10:30;;;;;;;22.30;4.23;;;26.30;57.00;;;;;;4994323;28;20825;-61
2022/06/02 14:13:23;;;;;;;2.40;2.20;;;26.50;55.80;;;;;;5001001;28;20801;-62
2022/06/02 14:16:02;;;;;;;3.33;2.10;;;26.60;55.90;;;;;;4989752;28;20473;-58
2022/06/02 14:18:47;;;;;;;2.70;2.50;;;26.60;57.20;;;;;;4999780;28;20488;-59
2022/06/02 14:21:23;;;;;;;3.20;2.57;;;26.40;54.50;;;;;;4985604;28;20480;-59
2022/06/02 14:24:02;;;;;;;6.30;2.17;;;26.70;57.90;;;;;;4990322;28;21035;-60
2022/06/02 14:26:39;;;;;;;3.40;2.20;;;27.00;58.10;;;;;;4988288;28;20479;-60
2022/06/02 14:29:16;;;;;;;2.63;2.43;;;27.00;57.60;;;;;;4998730;28;20486;-60
2022/06/02 14:31:52;;;;;;;5.03;2.17;;;26.90;56.20;;;;;;4997480;28;20994;-61